sensor_id;sensor_type;location;lat;lon;timestamp;temperature;humidity
2459;DHT22;1241;50.920;6.936;2023-06-24T00:01:23;20.90;99.90
2459;DHT22;1241;50.920;6.936;2023-06-24T00:03:49;20.90;99.90
2459;DHT22;1241;50.920;6.936;2023-06-24T00:06:19;20.90;99.90
2459;DHT22;1241;50.920;6.936;2023-06-24T00:08:45;20.90;99.90
2459;DHT22;1241;50.920;6.936;2023-06-24T00:11:11;20.80;99.90
2459;DHT22;1241;50.920;6.936;2023-06-24T00:13:38;20.20;99.90
2459;DHT22;1241;50.920;6.936;2023-06-24T00:16:04;20.80;99.90
2459;DHT22;1241;50.920;6.936;2023-06-24T00:18:32;20.80;99.90
2459;DHT22;1241;50.920;6.936;2023-06-24T00:20:58;20.80;99.90
2459;DHT22;1241;50.920;6.936;2023-06-24T00:23:24;20.70;99.90
2459;DHT22;1241;50.920;6.936;2023-06-24T00:25:51;20.70;99.90
2459;DHT22;1241;50.920;6.936;2023-06-24T00:28:17;20.70;99.90
2459;DHT22;1241;50.920;6.936;2023-06-24T00:30:42;20.60;99.90
2459;DHT22;1241;50.920;6.936;2023-06-24T00:33:08;20.60;99.90
2459;DHT22;1241;50.920;6.936;2023-06-24T00:35:36;20.60;99.90
2459;DHT22;1241;50.920;6.936;2023-06-24T00:38:03;20.60;99.90
2459;DHT22;1241;50.920;6.936;2023-06-24T00:40:29;20.50;99.90
2459;DHT22;1241;50.920;6.936;2023-06-24T00:42:55;20.50;99.90
2459;DHT22;1241;50.920;6.936;2023-06-24T00:45:24;20.50;99.90
2459;DHT22;1241;50.920;6.936;2023-06-24T00:47:51;20.40;99.90
2459;DHT22;1241;50.920;6.936;2023-06-24T00:50:22;20.30;99.90
2459;DHT22;1241;50.920;6.936;2023-06-24T00:52:48;20.20;99.90
2459;DHT22;1241;50.920;6.936;2023-06-24T00:55:17;20.20;99.90
2459;DHT22;1241;50.920;6.936;2023-06-24T00:57:44;20.20;99.90
2459;DHT22;1241;50.920;6.936;2023-06-24T01:00:11;20.10;99.90
2459;DHT22;1241;50.920;6.936;2023-06-24T01:02:43;20.10;99.90
2459;DHT22;1241;50.920;6.936;2023-06-24T01:05:12;20.10;99.90
2459;DHT22;1241;50.920;6.936;2023-06-24T01:07:38;20.10;99.90
2459;DHT22;1241;50.920;6.936;2023-06-24T01:10:05;20.10;99.90
2459;DHT22;1241;50.920;6.936;2023-06-24T01:12:37;20.10;99.90
2459;DHT22;1241;50.920;6.936;2023-06-24T01:15:10;20.00;99.90
2459;DHT22;1241;50.920;6.936;2023-06-24T01:20:41;19.80;99.90
2459;DHT22;1241;50.920;6.936;2023-06-24T01:23:28;19.60;99.90
2459;DHT22;1241;50.920;6.936;2023-06-24T01:26:18;19.60;99.90
2459;DHT22;1241;50.920;6.936;2023-06-24T01:29:20;19.60;99.90
2459;DHT22;1241;50.920;6.936;2023-06-24T01:31:52;19.60;99.90
2459;DHT22;1241;50.920;6.936;2023-06-24T01:42:31;19.60;99.90
2459;DHT22;1241;50.920;6.936;2023-06-24T01:44:59;19.60;99.90
2459;DHT22;1241;50.920;6.936;2023-06-24T01:47:27;19.50;99.90
2459;DHT22;1241;50.920;6.936;2023-06-24T01:49:57;19.50;99.90
2459;DHT22;1241;50.920;6.936;2023-06-24T01:52:26;19.40;99.90
2459;DHT22;1241;50.920;6.936;2023-06-24T01:54:55;19.40;99.90
2459;DHT22;1241;50.920;6.936;2023-06-24T01:57:22;19.40;99.90
2459;DHT22;1241;50.920;6.936;2023-06-24T01:59:48;19.40;99.90
2459;DHT22;1241;50.920;6.936;2023-06-24T02:02:15;19.30;99.90
2459;DHT22;1241;50.920;6.936;2023-06-24T02:04:45;19.20;99.90
2459;DHT22;1241;50.920;6.936;2023-06-24T02:07:13;19.20;99.90
2459;DHT22;1241;50.920;6.936;2023-06-24T02:09:39;19.20;99.90
2459;DHT22;1241;50.920;6.936;2023-06-24T02:12:08;19.20;99.90
2459;DHT22;1241;50.920;6.936;2023-06-24T02:14:35;19.10;99.90
2459;DHT22;1241;50.920;6.936;2023-06-24T02:17:04;19.10;99.90
2459;DHT22;1241;50.920;6.936;2023-06-24T02:19:33;19.00;99.90
2459;DHT22;1241;50.920;6.936;2023-06-24T02:22:00;19.00;99.90
2459;DHT22;1241;50.920;6.936;2023-06-24T02:24:27;19.00;99.90
2459;DHT22;1241;50.920;6.936;2023-06-24T02:26:54;18.90;99.90
2459;DHT22;1241;50.920;6.936;2023-06-24T02:29:22;18.90;99.90
2459;DHT22;1241;50.920;6.936;2023-06-24T02:31:49;18.90;99.90
2459;DHT22;1241;50.920;6.936;2023-06-24T02:34:15;18.80;99.90
2459;DHT22;1241;50.920;6.936;2023-06-24T02:36:41;18.90;99.90
2459;DHT22;1241;50.920;6.936;2023-06-24T02:39:06;18.80;99.90
2459;DHT22;1241;50.920;6.936;2023-06-24T02:41:32;18.80;99.90
2459;DHT22;1241;50.920;6.936;2023-06-24T02:43:58;18.80;99.90
2459;DHT22;1241;50.920;6.936;2023-06-24T02:46:25;18.80;99.90
2459;DHT22;1241;50.920;6.936;2023-06-24T02:48:56;18.90;99.90
2459;DHT22;1241;50.920;6.936;2023-06-24T02:51:24;18.90;99.90
2459;DHT22;1241;50.920;6.936;2023-06-24T02:53:50;18.90;99.90
2459;DHT22;1241;50.920;6.936;2023-06-24T02:56:20;18.80;99.90
2459;DHT22;1241;50.920;6.936;2023-06-24T02:58:47;18.70;99.90
2459;DHT22;1241;50.920;6.936;2023-06-24T03:01:22;18.70;99.90
2459;DHT22;1241;50.920;6.936;2023-06-24T03:03:54;18.70;99.90
2459;DHT22;1241;50.920;6.936;2023-06-24T03:06:21;18.70;99.90
2459;DHT22;1241;50.920;6.936;2023-06-24T03:08:48;18.70;99.90
2459;DHT22;1241;50.920;6.936;2023-06-24T03:11:16;18.60;99.90
2459;DHT22;1241;50.920;6.936;2023-06-24T03:13:43;18.70;99.90
2459;DHT22;1241;50.920;6.936;2023-06-24T03:16:20;18.60;99.90
2459;DHT22;1241;50.920;6.936;2023-06-24T03:19:11;18.50;99.90
2459;DHT22;1241;50.920;6.936;2023-06-24T03:21:37;18.50;99.90
2459;DHT22;1241;50.920;6.936;2023-06-24T03:24:09;18.50;99.90
2459;DHT22;1241;50.920;6.936;2023-06-24T03:26:40;18.40;99.90
2459;DHT22;1241;50.920;6.936;2023-06-24T03:29:09;18.40;99.90
2459;DHT22;1241;50.920;6.936;2023-06-24T03:31:38;18.50;99.90
2459;DHT22;1241;50.920;6.936;2023-06-24T03:34:11;18.40;99.90
2459;DHT22;1241;50.920;6.936;2023-06-24T03:36:36;18.40;99.90
2459;DHT22;1241;50.920;6.936;2023-06-24T03:39:05;18.40;99.90
2459;DHT22;1241;50.920;6.936;2023-06-24T03:41:32;18.40;99.90
2459;DHT22;1241;50.920;6.936;2023-06-24T03:43:57;18.40;99.90
2459;DHT22;1241;50.920;6.936;2023-06-24T03:46:23;18.40;99.90
2459;DHT22;1241;50.920;6.936;2023-06-24T03:48:50;18.50;99.90
2459;DHT22;1241;50.920;6.936;2023-06-24T03:51:16;18.60;99.90
2459;DHT22;1241;50.920;6.936;2023-06-24T03:53:43;18.70;99.90
2459;DHT22;1241;50.920;6.936;2023-06-24T03:56:08;18.70;99.90
2459;DHT22;1241;50.920;6.936;2023-06-24T03:58:34;18.80;99.90
2459;DHT22;1241;50.920;6.936;2023-06-24T04:01:02;18.80;99.90
2459;DHT22;1241;50.920;6.936;2023-06-24T04:03:28;18.90;99.90
2459;DHT22;1241;50.920;6.936;2023-06-24T04:05:55;18.90;99.90
2459;DHT22;1241;50.920;6.936;2023-06-24T04:08:22;19.00;99.90
2459;DHT22;1241;50.920;6.936;2023-06-24T04:10:48;19.30;99.90
2459;DHT22;1241;50.920;6.936;2023-06-24T04:13:13;19.50;99.90
2459;DHT22;1241;50.920;6.936;2023-06-24T04:15:39;19.80;99.90
2459;DHT22;1241;50.920;6.936;2023-06-24T04:18:05;20.10;99.90
2459;DHT22;1241;50.920;6.936;2023-06-24T04:20:31;20.50;99.90
2459;DHT22;1241;50.920;6.936;2023-06-24T04:22:58;20.80;99.90
2459;DHT22;1241;50.920;6.936;2023-06-24T04:25:24;21.20;99.90
2459;DHT22;1241;50.920;6.936;2023-06-24T04:27:50;21.40;99.90
2459;DHT22;1241;50.920;6.936;2023-06-24T04:30:16;21.70;99.90
2459;DHT22;1241;50.920;6.936;2023-06-24T04:32:42;22.00;99.90
2459;DHT22;1241;50.920;6.936;2023-06-24T04:35:08;22.10;99.90
2459;DHT22;1241;50.920;6.936;2023-06-24T04:37:36;22.20;99.90
2459;DHT22;1241;50.920;6.936;2023-06-24T04:40:02;22.50;99.90
2459;DHT22;1241;50.920;6.936;2023-06-24T04:42:28;22.70;99.90
2459;DHT22;1241;50.920;6.936;2023-06-24T04:44:54;22.80;99.90
2459;DHT22;1241;50.920;6.936;2023-06-24T04:47:19;23.00;99.90
2459;DHT22;1241;50.920;6.936;2023-06-24T04:49:45;23.30;99.90
2459;DHT22;1241;50.920;6.936;2023-06-24T04:52:11;23.50;99.90
2459;DHT22;1241;50.920;6.936;2023-06-24T04:54:37;23.80;99.90
2459;DHT22;1241;50.920;6.936;2023-06-24T04:57:09;24.00;99.90
2459;DHT22;1241;50.920;6.936;2023-06-24T04:59:48;24.40;99.90
2459;DHT22;1241;50.920;6.936;2023-06-24T05:02:13;24.80;99.90
2459;DHT22;1241;50.920;6.936;2023-06-24T05:04:39;24.90;99.90
2459;DHT22;1241;50.920;6.936;2023-06-24T05:07:04;25.20;99.90
2459;DHT22;1241;50.920;6.936;2023-06-24T05:09:30;25.60;99.90
2459;DHT22;1241;50.920;6.936;2023-06-24T05:11:56;26.00;99.90
2459;DHT22;1241;50.920;6.936;2023-06-24T05:14:21;26.40;99.90
2459;DHT22;1241;50.920;6.936;2023-06-24T05:16:47;26.80;99.90
2459;DHT22;1241;50.920;6.936;2023-06-24T05:19:13;27.00;99.90
2459;DHT22;1241;50.920;6.936;2023-06-24T05:21:38;27.30;99.90
2459;DHT22;1241;50.920;6.936;2023-06-24T05:24:04;27.30;99.90
2459;DHT22;1241;50.920;6.936;2023-06-24T05:26:30;27.40;99.90
2459;DHT22;1241;50.920;6.936;2023-06-24T05:28:56;27.30;99.90
2459;DHT22;1241;50.920;6.936;2023-06-24T05:31:21;27.30;99.90
2459;DHT22;1241;50.920;6.936;2023-06-24T05:33:47;27.30;99.90
2459;DHT22;1241;50.920;6.936;2023-06-24T05:36:13;27.20;99.90
2459;DHT22;1241;50.920;6.936;2023-06-24T05:38:38;27.20;99.90
2459;DHT22;1241;50.920;6.936;2023-06-24T05:41:04;27.30;99.90
2459;DHT22;1241;50.920;6.936;2023-06-24T05:43:30;27.60;99.90
2459;DHT22;1241;50.920;6.936;2023-06-24T05:45:55;27.90;99.90
2459;DHT22;1241;50.920;6.936;2023-06-24T05:48:21;28.10;99.90
2459;DHT22;1241;50.920;6.936;2023-06-24T05:50:47;28.50;99.90
2459;DHT22;1241;50.920;6.936;2023-06-24T05:53:13;28.80;99.90
2459;DHT22;1241;50.920;6.936;2023-06-24T05:55:38;29.10;99.90
2459;DHT22;1241;50.920;6.936;2023-06-24T05:58:04;29.30;99.90
2459;DHT22;1241;50.920;6.936;2023-06-24T06:00:30;29.40;99.90
2459;DHT22;1241;50.920;6.936;2023-06-24T06:02:55;29.70;99.90
2459;DHT22;1241;50.920;6.936;2023-06-24T06:05:21;30.00;99.90
2459;DHT22;1241;50.920;6.936;2023-06-24T06:07:47;30.20;99.90
2459;DHT22;1241;50.920;6.936;2023-06-24T06:10:13;30.40;99.90
2459;DHT22;1241;50.920;6.936;2023-06-24T06:12:43;30.70;99.90
2459;DHT22;1241;50.920;6.936;2023-06-24T06:15:09;30.70;99.90
2459;DHT22;1241;50.920;6.936;2023-06-24T06:17:35;30.80;99.90
2459;DHT22;1241;50.920;6.936;2023-06-24T06:20:01;30.60;99.90
2459;DHT22;1241;50.920;6.936;2023-06-24T06:22:26;30.50;99.90
2459;DHT22;1241;50.920;6.936;2023-06-24T06:24:52;30.40;99.90
2459;DHT22;1241;50.920;6.936;2023-06-24T06:27:18;29.90;99.90
2459;DHT22;1241;50.920;6.936;2023-06-24T06:29:43;29.90;99.90
2459;DHT22;1241;50.920;6.936;2023-06-24T06:32:09;30.10;99.90
2459;DHT22;1241;50.920;6.936;2023-06-24T06:34:35;30.30;99.90
2459;DHT22;1241;50.920;6.936;2023-06-24T06:37:02;30.60;99.90
2459;DHT22;1241;50.920;6.936;2023-06-24T06:39:28;30.50;99.90
2459;DHT22;1241;50.920;6.936;2023-06-24T06:41:53;30.80;99.90
2459;DHT22;1241;50.920;6.936;2023-06-24T06:44:22;30.90;99.90
2459;DHT22;1241;50.920;6.936;2023-06-24T06:46:48;31.10;99.90
2459;DHT22;1241;50.920;6.936;2023-06-24T06:49:13;31.10;99.00
2459;DHT22;1241;50.920;6.936;2023-06-24T06:51:39;31.20;98.20
2459;DHT22;1241;50.920;6.936;2023-06-24T06:54:05;31.10;97.70
2459;DHT22;1241;50.920;6.936;2023-06-24T06:56:30;30.90;97.60
2459;DHT22;1241;50.920;6.936;2023-06-24T06:58:56;30.50;98.00
2459;DHT22;1241;50.920;6.936;2023-06-24T07:01:21;30.00;99.30
2459;DHT22;1241;50.920;6.936;2023-06-24T07:03:49;29.70;99.90
2459;DHT22;1241;50.920;6.936;2023-06-24T07:06:17;29.30;99.90
2459;DHT22;1241;50.920;6.936;2023-06-24T07:08:43;29.20;99.90
2459;DHT22;1241;50.920;6.936;2023-06-24T07:11:08;29.10;99.90
2459;DHT22;1241;50.920;6.936;2023-06-24T07:13:34;29.10;99.90
2459;DHT22;1241;50.920;6.936;2023-06-24T07:16:00;29.50;99.90
2459;DHT22;1241;50.920;6.936;2023-06-24T07:18:25;30.10;99.80
2459;DHT22;1241;50.920;6.936;2023-06-24T07:20:56;30.50;98.70
2459;DHT22;1241;50.920;6.936;2023-06-24T07:23:21;30.90;95.30
2459;DHT22;1241;50.920;6.936;2023-06-24T07:25:47;31.00;95.60
2459;DHT22;1241;50.920;6.936;2023-06-24T07:28:13;31.20;94.50
2459;DHT22;1241;50.920;6.936;2023-06-24T07:30:39;31.40;95.20
2459;DHT22;1241;50.920;6.936;2023-06-24T07:33:05;31.50;94.10
2459;DHT22;1241;50.920;6.936;2023-06-24T07:35:32;31.70;93.40
2459;DHT22;1241;50.920;6.936;2023-06-24T07:37:58;31.50;93.00
2459;DHT22;1241;50.920;6.936;2023-06-24T07:40:24;31.50;93.30
2459;DHT22;1241;50.920;6.936;2023-06-24T07:42:50;31.80;93.20
2459;DHT22;1241;50.920;6.936;2023-06-24T07:45:15;32.00;91.60
2459;DHT22;1241;50.920;6.936;2023-06-24T07:47:41;32.20;90.10
2459;DHT22;1241;50.920;6.936;2023-06-24T07:50:07;31.70;85.00
2459;DHT22;1241;50.920;6.936;2023-06-24T07:52:34;31.20;86.80
2459;DHT22;1241;50.920;6.936;2023-06-24T07:55:00;31.00;88.60
2459;DHT22;1241;50.920;6.936;2023-06-24T07:57:26;31.00;87.90
2459;DHT22;1241;50.920;6.936;2023-06-24T07:59:52;31.10;87.30
2459;DHT22;1241;50.920;6.936;2023-06-24T08:02:20;31.30;85.50
2459;DHT22;1241;50.920;6.936;2023-06-24T08:04:46;31.40;85.00
2459;DHT22;1241;50.920;6.936;2023-06-24T08:07:12;31.20;84.00
2459;DHT22;1241;50.920;6.936;2023-06-24T08:09:37;31.20;84.70
2459;DHT22;1241;50.920;6.936;2023-06-24T08:12:04;31.10;86.30
2459;DHT22;1241;50.920;6.936;2023-06-24T08:14:30;31.10;86.30
2459;DHT22;1241;50.920;6.936;2023-06-24T08:16:55;30.70;86.00
2459;DHT22;1241;50.920;6.936;2023-06-24T08:19:21;30.50;88.20
2459;DHT22;1241;50.920;6.936;2023-06-24T08:21:47;30.40;90.40
2459;DHT22;1241;50.920;6.936;2023-06-24T08:24:13;30.40;90.00
2459;DHT22;1241;50.920;6.936;2023-06-24T08:26:38;30.10;91.20
2459;DHT22;1241;50.920;6.936;2023-06-24T08:29:04;29.60;91.60
2459;DHT22;1241;50.920;6.936;2023-06-24T08:31:30;29.00;92.50
2459;DHT22;1241;50.920;6.936;2023-06-24T08:33:59;28.70;94.20
2459;DHT22;1241;50.920;6.936;2023-06-24T08:36:28;28.50;95.50
2459;DHT22;1241;50.920;6.936;2023-06-24T08:38:54;28.20;97.90
2459;DHT22;1241;50.920;6.936;2023-06-24T08:41:20;28.10;98.70
2459;DHT22;1241;50.920;6.936;2023-06-24T08:43:46;28.00;99.20
2459;DHT22;1241;50.920;6.936;2023-06-24T08:46:15;27.70;99.90
2459;DHT22;1241;50.920;6.936;2023-06-24T08:48:42;27.70;99.90
2459;DHT22;1241;50.920;6.936;2023-06-24T08:51:12;27.70;99.90
2459;DHT22;1241;50.920;6.936;2023-06-24T08:53:39;27.70;99.90
2459;DHT22;1241;50.920;6.936;2023-06-24T08:56:06;27.80;99.90
2459;DHT22;1241;50.920;6.936;2023-06-24T08:58:32;28.20;99.90
2459;DHT22;1241;50.920;6.936;2023-06-24T09:00:59;27.90;99.90
2459;DHT22;1241;50.920;6.936;2023-06-24T09:03:25;27.70;99.90
2459;DHT22;1241;50.920;6.936;2023-06-24T09:05:51;27.70;99.90
2459;DHT22;1241;50.920;6.936;2023-06-24T09:08:17;27.80;99.90
2459;DHT22;1241;50.920;6.936;2023-06-24T09:10:43;27.80;99.90
2459;DHT22;1241;50.920;6.936;2023-06-24T09:13:09;27.90;99.90
2459;DHT22;1241;50.920;6.936;2023-06-24T09:15:37;27.90;99.90
2459;DHT22;1241;50.920;6.936;2023-06-24T09:18:04;28.00;99.90
2459;DHT22;1241;50.920;6.936;2023-06-24T09:20:31;28.00;99.90
2459;DHT22;1241;50.920;6.936;2023-06-24T09:23:01;28.00;99.90
2459;DHT22;1241;50.920;6.936;2023-06-24T09:25:28;27.80;99.90
2459;DHT22;1241;50.920;6.936;2023-06-24T09:27:54;27.80;99.90
2459;DHT22;1241;50.920;6.936;2023-06-24T09:30:23;27.80;99.90
2459;DHT22;1241;50.920;6.936;2023-06-24T09:32:50;28.00;99.90
2459;DHT22;1241;50.920;6.936;2023-06-24T09:35:20;28.10;99.90
2459;DHT22;1241;50.920;6.936;2023-06-24T09:37:56;28.00;99.90
2459;DHT22;1241;50.920;6.936;2023-06-24T09:40:22;27.90;99.90
2459;DHT22;1241;50.920;6.936;2023-06-24T09:42:58;28.10;99.90
2459;DHT22;1241;50.920;6.936;2023-06-24T09:45:29;28.30;99.90
2459;DHT22;1241;50.920;6.936;2023-06-24T09:47:56;28.40;99.90
2459;DHT22;1241;50.920;6.936;2023-06-24T09:50:23;28.50;99.90
2459;DHT22;1241;50.920;6.936;2023-06-24T09:52:49;28.60;99.90
2459;DHT22;1241;50.920;6.936;2023-06-24T09:55:17;28.60;99.90
2459;DHT22;1241;50.920;6.936;2023-06-24T09:57:45;28.80;99.90
2459;DHT22;1241;50.920;6.936;2023-06-24T10:00:13;28.90;99.90
2459;DHT22;1241;50.920;6.936;2023-06-24T10:02:40;28.90;98.40
2459;DHT22;1241;50.920;6.936;2023-06-24T10:05:06;28.70;99.00
2459;DHT22;1241;50.920;6.936;2023-06-24T10:07:34;28.60;99.50
2459;DHT22;1241;50.920;6.936;2023-06-24T10:10:04;28.40;96.60
2459;DHT22;1241;50.920;6.936;2023-06-24T10:12:29;28.10;96.50
2459;DHT22;1241;50.920;6.936;2023-06-24T10:14:58;27.90;95.90
2459;DHT22;1241;50.920;6.936;2023-06-24T10:17:24;27.90;97.30
2459;DHT22;1241;50.920;6.936;2023-06-24T10:19:52;27.90;95.60
2459;DHT22;1241;50.920;6.936;2023-06-24T10:22:24;28.00;96.80
2459;DHT22;1241;50.920;6.936;2023-06-24T10:24:52;28.10;97.10
2459;DHT22;1241;50.920;6.936;2023-06-24T10:27:20;28.30;98.00
2459;DHT22;1241;50.920;6.936;2023-06-24T10:29:50;28.30;98.40
2459;DHT22;1241;50.920;6.936;2023-06-24T10:32:18;28.40;98.40
2459;DHT22;1241;50.920;6.936;2023-06-24T10:34:46;28.50;98.00
2459;DHT22;1241;50.920;6.936;2023-06-24T10:37:21;28.60;96.10
2459;DHT22;1241;50.920;6.936;2023-06-24T10:39:58;28.70;95.80
2459;DHT22;1241;50.920;6.936;2023-06-24T10:42:31;28.90;92.80
2459;DHT22;1241;50.920;6.936;2023-06-24T10:47:39;28.40;91.60
2459;DHT22;1241;50.920;6.936;2023-06-24T10:50:06;28.50;90.70
2459;DHT22;1241;50.920;6.936;2023-06-24T10:52:36;28.30;91.00
2459;DHT22;1241;50.920;6.936;2023-06-24T10:55:03;28.40;90.40
2459;DHT22;1241;50.920;6.936;2023-06-24T10:57:29;28.60;88.50
2459;DHT22;1241;50.920;6.936;2023-06-24T10:59:56;28.60;85.20
2459;DHT22;1241;50.920;6.936;2023-06-24T11:02:23;28.60;85.50
2459;DHT22;1241;50.920;6.936;2023-06-24T11:07:24;28.80;87.20
2459;DHT22;1241;50.920;6.936;2023-06-24T11:09:55;29.00;83.50
2459;DHT22;1241;50.920;6.936;2023-06-24T11:12:26;29.00;82.50
2459;DHT22;1241;50.920;6.936;2023-06-24T11:14:59;29.00;80.10
2459;DHT22;1241;50.920;6.936;2023-06-24T11:17:25;29.00;80.90
2459;DHT22;1241;50.920;6.936;2023-06-24T11:19:55;29.10;80.20
2459;DHT22;1241;50.920;6.936;2023-06-24T11:22:22;29.20;80.30
2459;DHT22;1241;50.920;6.936;2023-06-24T11:24:48;29.20;79.40
2459;DHT22;1241;50.920;6.936;2023-06-24T11:27:13;29.30;79.10
2459;DHT22;1241;50.920;6.936;2023-06-24T11:29:39;29.20;81.30
2459;DHT22;1241;50.920;6.936;2023-06-24T11:32:08;29.20;80.90
2459;DHT22;1241;50.920;6.936;2023-06-24T11:34:37;29.30;81.80
2459;DHT22;1241;50.920;6.936;2023-06-24T11:37:31;29.30;82.80
2459;DHT22;1241;50.920;6.936;2023-06-24T11:40:05;29.20;81.20
2459;DHT22;1241;50.920;6.936;2023-06-24T11:42:32;29.10;81.80
2459;DHT22;1241;50.920;6.936;2023-06-24T11:45:09;29.00;82.70
2459;DHT22;1241;50.920;6.936;2023-06-24T11:47:36;28.90;82.30
2459;DHT22;1241;50.920;6.936;2023-06-24T11:50:04;28.80;85.60
2459;DHT22;1241;50.920;6.936;2023-06-24T11:52:48;28.80;88.30
2459;DHT22;1241;50.920;6.936;2023-06-24T11:55:18;29.00;87.80
2459;DHT22;1241;50.920;6.936;2023-06-24T11:58:03;29.20;86.40
2459;DHT22;1241;50.920;6.936;2023-06-24T12:00:41;29.40;88.20
2459;DHT22;1241;50.920;6.936;2023-06-24T12:03:09;29.50;88.20
2459;DHT22;1241;50.920;6.936;2023-06-24T12:05:36;29.50;89.60
2459;DHT22;1241;50.920;6.936;2023-06-24T12:10:30;29.50;86.40
2459;DHT22;1241;50.920;6.936;2023-06-24T12:12:59;29.50;87.50
2459;DHT22;1241;50.920;6.936;2023-06-24T12:15:26;29.60;84.40
2459;DHT22;1241;50.920;6.936;2023-06-24T12:17:52;29.70;82.40
2459;DHT22;1241;50.920;6.936;2023-06-24T12:20:18;29.60;83.50
2459;DHT22;1241;50.920;6.936;2023-06-24T12:22:46;29.60;83.50
2459;DHT22;1241;50.920;6.936;2023-06-24T12:25:12;29.60;80.90
2459;DHT22;1241;50.920;6.936;2023-06-24T12:27:38;29.60;81.40
2459;DHT22;1241;50.920;6.936;2023-06-24T12:30:06;29.40;81.90
2459;DHT22;1241;50.920;6.936;2023-06-24T12:32:32;29.40;82.40
2459;DHT22;1241;50.920;6.936;2023-06-24T12:34:57;29.60;82.20
2459;DHT22;1241;50.920;6.936;2023-06-24T12:37:23;29.70;79.40
2459;DHT22;1241;50.920;6.936;2023-06-24T12:39:49;29.80;80.80
2459;DHT22;1241;50.920;6.936;2023-06-24T12:42:16;29.90;82.00
2459;DHT22;1241;50.920;6.936;2023-06-24T12:44:42;30.00;80.10
2459;DHT22;1241;50.920;6.936;2023-06-24T12:47:08;29.90;79.80
2459;DHT22;1241;50.920;6.936;2023-06-24T12:49:33;29.90;81.30
2459;DHT22;1241;50.920;6.936;2023-06-24T12:51:59;29.90;79.80
2459;DHT22;1241;50.920;6.936;2023-06-24T12:54:25;30.00;81.50
2459;DHT22;1241;50.920;6.936;2023-06-24T12:56:50;30.00;79.30
2459;DHT22;1241;50.920;6.936;2023-06-24T12:59:16;30.10;78.40
2459;DHT22;1241;50.920;6.936;2023-06-24T13:01:42;30.10;77.90
2459;DHT22;1241;50.920;6.936;2023-06-24T13:04:11;30.20;75.70
2459;DHT22;1241;50.920;6.936;2023-06-24T13:06:37;30.30;75.10
2459;DHT22;1241;50.920;6.936;2023-06-24T13:09:02;30.30;73.40
2459;DHT22;1241;50.920;6.936;2023-06-24T13:11:28;30.40;72.70
2459;DHT22;1241;50.920;6.936;2023-06-24T13:13:54;30.40;73.70
2459;DHT22;1241;50.920;6.936;2023-06-24T13:16:20;30.40;72.80
2459;DHT22;1241;50.920;6.936;2023-06-24T13:18:46;30.50;72.80
2459;DHT22;1241;50.920;6.936;2023-06-24T13:21:11;30.60;73.00
2459;DHT22;1241;50.920;6.936;2023-06-24T13:23:38;30.50;71.50
2459;DHT22;1241;50.920;6.936;2023-06-24T13:26:06;30.30;71.90
2459;DHT22;1241;50.920;6.936;2023-06-24T13:28:31;30.10;72.20
2459;DHT22;1241;50.920;6.936;2023-06-24T13:30:58;30.10;74.10
2459;DHT22;1241;50.920;6.936;2023-06-24T13:33:23;30.10;73.80
2459;DHT22;1241;50.920;6.936;2023-06-24T13:35:51;30.10;73.00
2459;DHT22;1241;50.920;6.936;2023-06-24T13:38:17;30.00;74.10
2459;DHT22;1241;50.920;6.936;2023-06-24T13:40:43;29.80;75.00
2459;DHT22;1241;50.920;6.936;2023-06-24T13:43:08;29.70;76.10
2459;DHT22;1241;50.920;6.936;2023-06-24T13:45:34;29.60;75.20
2459;DHT22;1241;50.920;6.936;2023-06-24T13:48:00;29.70;75.60
2459;DHT22;1241;50.920;6.936;2023-06-24T13:50:26;29.50;74.90
2459;DHT22;1241;50.920;6.936;2023-06-24T13:52:51;29.30;74.60
2459;DHT22;1241;50.920;6.936;2023-06-24T13:55:17;29.20;74.80
2459;DHT22;1241;50.920;6.936;2023-06-24T13:57:43;29.30;74.60
2459;DHT22;1241;50.920;6.936;2023-06-24T14:00:10;29.30;76.10
2459;DHT22;1241;50.920;6.936;2023-06-24T14:02:39;29.40;77.00
2459;DHT22;1241;50.920;6.936;2023-06-24T14:05:06;29.50;77.20
2459;DHT22;1241;50.920;6.936;2023-06-24T14:07:32;29.70;73.90
2459;DHT22;1241;50.920;6.936;2023-06-24T14:09:58;29.80;72.60
2459;DHT22;1241;50.920;6.936;2023-06-24T14:12:23;29.80;71.20
2459;DHT22;1241;50.920;6.936;2023-06-24T14:14:49;29.80;70.90
2459;DHT22;1241;50.920;6.936;2023-06-24T14:17:15;29.80;71.90
2459;DHT22;1241;50.920;6.936;2023-06-24T14:19:40;29.70;74.00
2459;DHT22;1241;50.920;6.936;2023-06-24T14:22:07;29.80;72.50
2459;DHT22;1241;50.920;6.936;2023-06-24T14:24:32;29.60;73.70
2459;DHT22;1241;50.920;6.936;2023-06-24T14:26:58;29.60;73.40
2459;DHT22;1241;50.920;6.936;2023-06-24T14:29:24;29.40;71.60
2459;DHT22;1241;50.920;6.936;2023-06-24T14:31:51;29.40;72.60
2459;DHT22;1241;50.920;6.936;2023-06-24T14:34:17;29.60;73.10
2459;DHT22;1241;50.920;6.936;2023-06-24T14:36:43;29.60;72.60
2459;DHT22;1241;50.920;6.936;2023-06-24T14:39:11;29.60;70.40
2459;DHT22;1241;50.920;6.936;2023-06-24T14:41:37;29.40;69.90
2459;DHT22;1241;50.920;6.936;2023-06-24T14:44:03;29.40;69.90
2459;DHT22;1241;50.920;6.936;2023-06-24T14:46:29;29.30;69.80
2459;DHT22;1241;50.920;6.936;2023-06-24T14:48:54;29.30;69.60
2459;DHT22;1241;50.920;6.936;2023-06-24T14:51:20;29.40;69.80
2459;DHT22;1241;50.920;6.936;2023-06-24T14:53:46;29.50;70.40
2459;DHT22;1241;50.920;6.936;2023-06-24T14:56:11;29.50;68.00
2459;DHT22;1241;50.920;6.936;2023-06-24T14:58:37;29.50;69.80
2459;DHT22;1241;50.920;6.936;2023-06-24T15:01:03;29.50;69.50
2459;DHT22;1241;50.920;6.936;2023-06-24T15:03:28;29.60;68.70
2459;DHT22;1241;50.920;6.936;2023-06-24T15:05:54;29.60;68.20
2459;DHT22;1241;50.920;6.936;2023-06-24T15:08:20;29.50;66.80
2459;DHT22;1241;50.920;6.936;2023-06-24T15:10:45;29.50;67.20
2459;DHT22;1241;50.920;6.936;2023-06-24T15:13:11;29.50;66.30
2459;DHT22;1241;50.920;6.936;2023-06-24T15:15:37;29.40;67.00
2459;DHT22;1241;50.920;6.936;2023-06-24T15:18:02;29.40;64.90
2459;DHT22;1241;50.920;6.936;2023-06-24T15:20:28;29.40;65.60
2459;DHT22;1241;50.920;6.936;2023-06-24T15:22:54;29.40;62.40
2459;DHT22;1241;50.920;6.936;2023-06-24T15:25:19;29.40;62.90
2459;DHT22;1241;50.920;6.936;2023-06-24T15:27:45;29.40;63.80
2459;DHT22;1241;50.920;6.936;2023-06-24T15:30:11;29.50;63.90
2459;DHT22;1241;50.920;6.936;2023-06-24T15:32:37;29.60;59.80
2459;DHT22;1241;50.920;6.936;2023-06-24T15:35:03;29.40;59.30
2459;DHT22;1241;50.920;6.936;2023-06-24T15:37:29;29.50;59.10
2459;DHT22;1241;50.920;6.936;2023-06-24T15:39:55;29.50;59.20
2459;DHT22;1241;50.920;6.936;2023-06-24T15:42:21;29.40;58.50
2459;DHT22;1241;50.920;6.936;2023-06-24T15:44:46;29.40;59.20
2459;DHT22;1241;50.920;6.936;2023-06-24T15:47:12;29.40;57.90
2459;DHT22;1241;50.920;6.936;2023-06-24T15:49:38;29.30;57.80
2459;DHT22;1241;50.920;6.936;2023-06-24T15:52:04;29.30;58.00
2459;DHT22;1241;50.920;6.936;2023-06-24T15:54:29;29.20;56.20
2459;DHT22;1241;50.920;6.936;2023-06-24T15:56:55;29.20;57.00
2459;DHT22;1241;50.920;6.936;2023-06-24T15:59:21;29.20;57.00
2459;DHT22;1241;50.920;6.936;2023-06-24T16:01:46;29.20;56.30
2459;DHT22;1241;50.920;6.936;2023-06-24T16:04:12;29.20;57.30
2459;DHT22;1241;50.920;6.936;2023-06-24T16:06:38;29.30;56.40
2459;DHT22;1241;50.920;6.936;2023-06-24T16:09:03;29.30;56.10
2459;DHT22;1241;50.920;6.936;2023-06-24T16:11:29;29.40;55.90
2459;DHT22;1241;50.920;6.936;2023-06-24T16:13:55;29.50;55.70
2459;DHT22;1241;50.920;6.936;2023-06-24T16:16:21;29.50;56.00
2459;DHT22;1241;50.920;6.936;2023-06-24T16:18:47;29.60;55.60
2459;DHT22;1241;50.920;6.936;2023-06-24T16:21:12;29.60;55.50